In Rescue
 
Open Full Screen Window  High Contrast Mode
March 29, 2020 8:14 PM CDT
Weather Information
Wind Direction
  ---
Wind Speed
  00 kt (0 mph)
Wind Gust
  00 kt (0 mph)
Altimeter
29.91 in
Visibility
10 SM
Temperature
05° C
41° F
Dewpoint
-05° C
23° F
Humidity
49%
1hr Rain Fall
00.00 in.
24hr Rain Fall
00.69 in.
Sky Condition
Overcast @ 7,000 ft
VFR

METAR KBFW 300114Z AUTO 00000KT 10SM OVC070 05/M05 A2991 RMK AO2

FAA Disclaimer: The data displayed is for advisory purposes only and is not to be used for flight planning or operations.